sensor_id;sensor_type;location;lat;lon;timestamp;P1;durP1;ratioP1;P2;durP2;ratioP2
55589;SDS011;41452;42.780;23.116;2022-10-16T00:00:30;8.52;;;3.42;;
55589;SDS011;41452;42.780;23.116;2022-10-16T00:02:56;5.00;;;3.13;;
55589;SDS011;41452;42.780;23.116;2022-10-16T00:05:22;7.10;;;3.35;;
55589;SDS011;41452;42.780;23.116;2022-10-16T00:07:47;5.40;;;2.95;;
55589;SDS011;41452;42.780;23.116;2022-10-16T00:10:12;9.30;;;3.50;;
55589;SDS011;41452;42.780;23.116;2022-10-16T00:12:38;8.18;;;3.05;;
55589;SDS011;41452;42.780;23.116;2022-10-16T00:15:03;4.72;;;2.95;;
55589;SDS011;41452;42.780;23.116;2022-10-16T00:17:29;6.82;;;3.67;;
55589;SDS011;41452;42.780;23.116;2022-10-16T00:19:55;4.22;;;2.92;;
55589;SDS011;41452;42.780;23.116;2022-10-16T00:22:21;6.85;;;3.15;;
55589;SDS011;41452;42.780;23.116;2022-10-16T00:24:47;8.02;;;3.17;;
55589;SDS011;41452;42.780;23.116;2022-10-16T00:27:12;4.43;;;3.03;;
55589;SDS011;41452;42.780;23.116;2022-10-16T00:29:38;5.13;;;3.17;;
55589;SDS011;41452;42.780;23.116;2022-10-16T00:32:03;6.70;;;3.03;;
55589;SDS011;41452;42.780;23.116;2022-10-16T00:34:28;6.97;;;3.35;;
55589;SDS011;41452;42.780;23.116;2022-10-16T00:36:54;5.70;;;3.20;;
55589;SDS011;41452;42.780;23.116;2022-10-16T00:39:19;5.97;;;3.45;;
55589;SDS011;41452;42.780;23.116;2022-10-16T00:41:45;4.70;;;2.92;;
55589;SDS011;41452;42.780;23.116;2022-10-16T00:47:09;4.13;;;3.00;;
55589;SDS011;41452;42.780;23.116;2022-10-16T00:49:37;7.63;;;3.60;;
55589;SDS011;41452;42.780;23.116;2022-10-16T00:52:03;5.43;;;2.97;;
55589;SDS011;41452;42.780;23.116;2022-10-16T00:54:30;8.20;;;2.97;;
55589;SDS011;41452;42.780;23.116;2022-10-16T00:56:58;5.18;;;3.15;;
55589;SDS011;41452;42.780;23.116;2022-10-16T00:59:27;5.60;;;3.13;;
55589;SDS011;41452;42.780;23.116;2022-10-16T01:01:58;5.25;;;2.83;;
55589;SDS011;41452;42.780;23.116;2022-10-16T01:04:24;4.00;;;3.10;;
55589;SDS011;41452;42.780;23.116;2022-10-16T01:06:55;5.35;;;2.92;;
55589;SDS011;41452;42.780;23.116;2022-10-16T01:12:23;4.63;;;2.47;;
55589;SDS011;41452;42.780;23.116;2022-10-16T01:15:01;6.20;;;3.05;;
55589;SDS011;41452;42.780;23.116;2022-10-16T01:17:34;5.00;;;2.83;;
55589;SDS011;41452;42.780;23.116;2022-10-16T01:20:11;4.63;;;2.53;;
55589;SDS011;41452;42.780;23.116;2022-10-16T01:28:13;5.68;;;2.95;;
55589;SDS011;41452;42.780;23.116;2022-10-16T01:30:42;4.63;;;2.63;;
55589;SDS011;41452;42.780;23.116;2022-10-16T01:33:14;5.20;;;2.90;;
55589;SDS011;41452;42.780;23.116;2022-10-16T01:35:52;5.63;;;2.80;;
55589;SDS011;41452;42.780;23.116;2022-10-16T01:40:52;6.25;;;3.35;;
55589;SDS011;41452;42.780;23.116;2022-10-16T01:45:55;4.30;;;2.75;;
55589;SDS011;41452;42.780;23.116;2022-10-16T01:48:21;4.25;;;2.83;;
55589;SDS011;41452;42.780;23.116;2022-10-16T01:50:52;9.82;;;3.10;;
55589;SDS011;41452;42.780;23.116;2022-10-16T01:53:21;5.07;;;3.13;;
55589;SDS011;41452;42.780;23.116;2022-10-16T01:55:49;5.78;;;3.20;;
55589;SDS011;41452;42.780;23.116;2022-10-16T01:58:17;5.20;;;2.65;;
55589;SDS011;41452;42.780;23.116;2022-10-16T02:00:44;7.25;;;3.55;;
55589;SDS011;41452;42.780;23.116;2022-10-16T02:03:12;10.55;;;2.70;;
55589;SDS011;41452;42.780;23.116;2022-10-16T02:05:41;3.75;;;2.58;;
55589;SDS011;41452;42.780;23.116;2022-10-16T02:08:11;5.18;;;2.90;;
55589;SDS011;41452;42.780;23.116;2022-10-16T02:10:37;4.43;;;2.92;;
55589;SDS011;41452;42.780;23.116;2022-10-16T02:15:34;5.55;;;3.00;;
55589;SDS011;41452;42.780;23.116;2022-10-16T02:18:01;6.03;;;3.20;;
55589;SDS011;41452;42.780;23.116;2022-10-16T02:20:29;6.05;;;2.97;;
55589;SDS011;41452;42.780;23.116;2022-10-16T02:22:59;5.57;;;2.92;;
55589;SDS011;41452;42.780;23.116;2022-10-16T02:25:28;5.93;;;3.63;;
55589;SDS011;41452;42.780;23.116;2022-10-16T02:30:55;6.65;;;3.00;;
55589;SDS011;41452;42.780;23.116;2022-10-16T02:33:24;6.63;;;2.70;;
55589;SDS011;41452;42.780;23.116;2022-10-16T02:35:52;4.82;;;2.92;;
55589;SDS011;41452;42.780;23.116;2022-10-16T02:38:19;6.07;;;3.30;;
55589;SDS011;41452;42.780;23.116;2022-10-16T02:40:46;5.82;;;3.00;;
55589;SDS011;41452;42.780;23.116;2022-10-16T02:43:12;5.05;;;3.28;;
55589;SDS011;41452;42.780;23.116;2022-10-16T02:45:38;5.88;;;3.13;;
55589;SDS011;41452;42.780;23.116;2022-10-16T02:48:04;8.55;;;3.20;;
55589;SDS011;41452;42.780;23.116;2022-10-16T02:50:29;6.43;;;3.15;;
55589;SDS011;41452;42.780;23.116;2022-10-16T02:52:55;5.00;;;2.78;;
55589;SDS011;41452;42.780;23.116;2022-10-16T02:55:20;9.90;;;3.15;;
55589;SDS011;41452;42.780;23.116;2022-10-16T02:57:46;6.15;;;2.90;;
55589;SDS011;41452;42.780;23.116;2022-10-16T03:00:12;4.90;;;3.05;;
55589;SDS011;41452;42.780;23.116;2022-10-16T03:02:40;4.68;;;2.63;;
55589;SDS011;41452;42.780;23.116;2022-10-16T03:05:06;9.38;;;3.38;;
55589;SDS011;41452;42.780;23.116;2022-10-16T03:07:31;7.07;;;3.15;;
55589;SDS011;41452;42.780;23.116;2022-10-16T03:09:57;7.38;;;3.65;;
55589;SDS011;41452;42.780;23.116;2022-10-16T03:12:25;4.70;;;2.70;;
55589;SDS011;41452;42.780;23.116;2022-10-16T03:14:51;7.50;;;3.15;;
55589;SDS011;41452;42.780;23.116;2022-10-16T03:17:16;8.20;;;3.40;;
55589;SDS011;41452;42.780;23.116;2022-10-16T03:19:42;7.90;;;3.45;;
55589;SDS011;41452;42.780;23.116;2022-10-16T03:22:07;5.55;;;3.08;;
55589;SDS011;41452;42.780;23.116;2022-10-16T03:24:33;10.07;;;3.58;;
55589;SDS011;41452;42.780;23.116;2022-10-16T03:26:59;5.80;;;3.03;;
55589;SDS011;41452;42.780;23.116;2022-10-16T03:29:24;5.53;;;3.13;;
55589;SDS011;41452;42.780;23.116;2022-10-16T03:31:50;6.40;;;3.58;;
55589;SDS011;41452;42.780;23.116;2022-10-16T03:34:16;6.97;;;3.17;;
55589;SDS011;41452;42.780;23.116;2022-10-16T03:36:41;7.10;;;3.28;;
55589;SDS011;41452;42.780;23.116;2022-10-16T03:39:07;9.48;;;3.30;;
55589;SDS011;41452;42.780;23.116;2022-10-16T03:41:32;5.63;;;3.08;;
55589;SDS011;41452;42.780;23.116;2022-10-16T03:43:58;6.40;;;3.63;;
55589;SDS011;41452;42.780;23.116;2022-10-16T03:46:23;7.38;;;2.85;;
55589;SDS011;41452;42.780;23.116;2022-10-16T03:48:49;6.90;;;3.25;;
55589;SDS011;41452;42.780;23.116;2022-10-16T03:51:14;5.55;;;3.25;;
55589;SDS011;41452;42.780;23.116;2022-10-16T03:53:39;5.07;;;3.03;;
55589;SDS011;41452;42.780;23.116;2022-10-16T03:56:05;4.53;;;3.05;;
55589;SDS011;41452;42.780;23.116;2022-10-16T03:58:31;4.60;;;3.15;;
55589;SDS011;41452;42.780;23.116;2022-10-16T04:00:56;4.22;;;2.78;;
55589;SDS011;41452;42.780;23.116;2022-10-16T04:03:21;12.73;;;3.75;;
55589;SDS011;41452;42.780;23.116;2022-10-16T04:05:48;3.88;;;2.72;;
55589;SDS011;41452;42.780;23.116;2022-10-16T04:08:13;6.10;;;3.55;;
55589;SDS011;41452;42.780;23.116;2022-10-16T04:10:39;7.63;;;3.13;;
55589;SDS011;41452;42.780;23.116;2022-10-16T04:13:04;7.40;;;2.83;;
55589;SDS011;41452;42.780;23.116;2022-10-16T04:15:29;6.70;;;3.88;;
55589;SDS011;41452;42.780;23.116;2022-10-16T04:17:55;6.10;;;3.05;;
55589;SDS011;41452;42.780;23.116;2022-10-16T04:20:20;6.88;;;3.38;;
55589;SDS011;41452;42.780;23.116;2022-10-16T04:22:46;5.05;;;3.17;;
55589;SDS011;41452;42.780;23.116;2022-10-16T04:25:11;7.20;;;3.47;;
55589;SDS011;41452;42.780;23.116;2022-10-16T04:27:37;5.25;;;3.53;;
55589;SDS011;41452;42.780;23.116;2022-10-16T04:30:03;4.68;;;3.05;;
55589;SDS011;41452;42.780;23.116;2022-10-16T04:32:29;5.45;;;3.72;;
55589;SDS011;41452;42.780;23.116;2022-10-16T04:34:54;7.90;;;3.08;;
55589;SDS011;41452;42.780;23.116;2022-10-16T04:37:23;6.82;;;3.15;;
55589;SDS011;41452;42.780;23.116;2022-10-16T04:39:50;6.03;;;2.67;;
55589;SDS011;41452;42.780;23.116;2022-10-16T04:42:15;6.30;;;3.85;;
55589;SDS011;41452;42.780;23.116;2022-10-16T04:44:40;9.10;;;3.53;;
55589;SDS011;41452;42.780;23.116;2022-10-16T04:47:06;6.90;;;3.28;;
55589;SDS011;41452;42.780;23.116;2022-10-16T04:49:31;5.28;;;3.38;;
55589;SDS011;41452;42.780;23.116;2022-10-16T04:51:56;5.63;;;3.72;;
55589;SDS011;41452;42.780;23.116;2022-10-16T04:54:22;6.13;;;3.30;;
55589;SDS011;41452;42.780;23.116;2022-10-16T04:56:47;7.60;;;4.05;;
55589;SDS011;41452;42.780;23.116;2022-10-16T04:59:15;11.88;;;5.00;;
55589;SDS011;41452;42.780;23.116;2022-10-16T05:01:41;8.43;;;3.97;;
55589;SDS011;41452;42.780;23.116;2022-10-16T05:04:07;7.30;;;3.72;;
55589;SDS011;41452;42.780;23.116;2022-10-16T05:06:32;6.30;;;3.80;;
55589;SDS011;41452;42.780;23.116;2022-10-16T05:08:58;7.35;;;3.80;;
55589;SDS011;41452;42.780;23.116;2022-10-16T05:11:23;9.93;;;4.00;;
55589;SDS011;41452;42.780;23.116;2022-10-16T05:13:49;10.00;;;3.63;;
55589;SDS011;41452;42.780;23.116;2022-10-16T05:16:14;6.88;;;3.95;;
55589;SDS011;41452;42.780;23.116;2022-10-16T05:18:40;6.75;;;3.83;;
55589;SDS011;41452;42.780;23.116;2022-10-16T05:21:06;8.10;;;4.18;;
55589;SDS011;41452;42.780;23.116;2022-10-16T05:23:31;8.02;;;4.00;;
55589;SDS011;41452;42.780;23.116;2022-10-16T05:25:57;7.60;;;3.80;;
55589;SDS011;41452;42.780;23.116;2022-10-16T05:28:25;7.93;;;3.72;;
55589;SDS011;41452;42.780;23.116;2022-10-16T05:30:51;10.43;;;4.55;;
55589;SDS011;41452;42.780;23.116;2022-10-16T05:33:16;7.28;;;4.22;;
55589;SDS011;41452;42.780;23.116;2022-10-16T05:35:42;7.80;;;4.32;;
55589;SDS011;41452;42.780;23.116;2022-10-16T05:38:08;7.03;;;3.92;;
55589;SDS011;41452;42.780;23.116;2022-10-16T05:40:34;8.70;;;4.40;;
55589;SDS011;41452;42.780;23.116;2022-10-16T05:43:00;7.43;;;4.60;;
55589;SDS011;41452;42.780;23.116;2022-10-16T05:45:25;6.82;;;4.22;;
55589;SDS011;41452;42.780;23.116;2022-10-16T05:47:51;8.90;;;4.35;;
55589;SDS011;41452;42.780;23.116;2022-10-16T05:50:16;11.82;;;4.75;;
55589;SDS011;41452;42.780;23.116;2022-10-16T05:52:42;7.90;;;4.07;;
55589;SDS011;41452;42.780;23.116;2022-10-16T05:55:07;7.53;;;4.57;;
55589;SDS011;41452;42.780;23.116;2022-10-16T05:57:33;9.13;;;4.88;;
55589;SDS011;41452;42.780;23.116;2022-10-16T05:59:58;7.95;;;5.03;;
55589;SDS011;41452;42.780;23.116;2022-10-16T06:02:23;11.60;;;6.10;;
55589;SDS011;41452;42.780;23.116;2022-10-16T06:04:51;21.40;;;9.57;;
55589;SDS011;41452;42.780;23.116;2022-10-16T06:07:18;25.23;;;10.60;;
55589;SDS011;41452;42.780;23.116;2022-10-16T06:09:44;25.92;;;10.20;;
55589;SDS011;41452;42.780;23.116;2022-10-16T06:12:12;24.45;;;10.13;;
55589;SDS011;41452;42.780;23.116;2022-10-16T06:14:37;20.67;;;8.52;;
55589;SDS011;41452;42.780;23.116;2022-10-16T06:17:03;21.67;;;8.55;;
55589;SDS011;41452;42.780;23.116;2022-10-16T06:19:28;16.08;;;7.05;;
55589;SDS011;41452;42.780;23.116;2022-10-16T06:21:54;13.68;;;6.35;;
55589;SDS011;41452;42.780;23.116;2022-10-16T06:24:19;11.75;;;5.80;;
55589;SDS011;41452;42.780;23.116;2022-10-16T06:26:44;13.18;;;5.95;;
55589;SDS011;41452;42.780;23.116;2022-10-16T06:29:10;10.82;;;6.05;;
55589;SDS011;41452;42.780;23.116;2022-10-16T06:31:35;12.18;;;6.72;;
55589;SDS011;41452;42.780;23.116;2022-10-16T06:34:01;10.40;;;5.85;;
55589;SDS011;41452;42.780;23.116;2022-10-16T06:36:27;11.07;;;6.05;;
55589;SDS011;41452;42.780;23.116;2022-10-16T06:38:52;12.20;;;5.43;;
55589;SDS011;41452;42.780;23.116;2022-10-16T06:41:19;14.20;;;6.85;;
55589;SDS011;41452;42.780;23.116;2022-10-16T06:43:46;13.10;;;6.75;;
55589;SDS011;41452;42.780;23.116;2022-10-16T06:46:13;14.85;;;6.40;;
55589;SDS011;41452;42.780;23.116;2022-10-16T06:48:39;11.68;;;6.10;;
55589;SDS011;41452;42.780;23.116;2022-10-16T06:53:32;8.63;;;5.90;;
55589;SDS011;41452;42.780;23.116;2022-10-16T06:56:10;9.70;;;5.97;;
55589;SDS011;41452;42.780;23.116;2022-10-16T06:58:37;11.52;;;5.57;;
55589;SDS011;41452;42.780;23.116;2022-10-16T07:01:04;13.65;;;5.97;;
55589;SDS011;41452;42.780;23.116;2022-10-16T07:03:30;14.70;;;6.47;;
55589;SDS011;41452;42.780;23.116;2022-10-16T07:05:56;11.20;;;6.35;;
55589;SDS011;41452;42.780;23.116;2022-10-16T07:08:22;8.85;;;5.75;;
55589;SDS011;41452;42.780;23.116;2022-10-16T07:10:47;19.77;;;6.15;;
55589;SDS011;41452;42.780;23.116;2022-10-16T07:13:13;10.00;;;5.80;;
55589;SDS011;41452;42.780;23.116;2022-10-16T07:15:39;10.80;;;5.65;;
55589;SDS011;41452;42.780;23.116;2022-10-16T07:18:05;12.30;;;5.90;;
55589;SDS011;41452;42.780;23.116;2022-10-16T07:20:32;9.80;;;6.25;;
55589;SDS011;41452;42.780;23.116;2022-10-16T07:22:57;8.27;;;5.50;;
55589;SDS011;41452;42.780;23.116;2022-10-16T07:25:23;10.45;;;5.68;;
55589;SDS011;41452;42.780;23.116;2022-10-16T07:27:48;6.82;;;4.57;;
55589;SDS011;41452;42.780;23.116;2022-10-16T07:30:14;10.38;;;5.43;;
55589;SDS011;41452;42.780;23.116;2022-10-16T07:32:39;10.82;;;5.43;;
55589;SDS011;41452;42.780;23.116;2022-10-16T07:35:05;9.13;;;5.47;;
55589;SDS011;41452;42.780;23.116;2022-10-16T07:37:31;8.02;;;4.20;;
55589;SDS011;41452;42.780;23.116;2022-10-16T07:39:56;7.68;;;4.85;;
55589;SDS011;41452;42.780;23.116;2022-10-16T07:42:22;7.75;;;5.13;;
55589;SDS011;41452;42.780;23.116;2022-10-16T07:44:47;9.07;;;4.45;;
55589;SDS011;41452;42.780;23.116;2022-10-16T07:47:13;8.68;;;4.15;;
55589;SDS011;41452;42.780;23.116;2022-10-16T07:49:38;8.77;;;4.90;;
55589;SDS011;41452;42.780;23.116;2022-10-16T07:52:04;9.20;;;5.82;;
55589;SDS011;41452;42.780;23.116;2022-10-16T07:54:29;7.47;;;4.57;;
55589;SDS011;41452;42.780;23.116;2022-10-16T07:56:56;8.93;;;4.82;;
55589;SDS011;41452;42.780;23.116;2022-10-16T07:59:21;13.23;;;5.55;;
55589;SDS011;41452;42.780;23.116;2022-10-16T08:01:48;9.50;;;5.13;;
55589;SDS011;41452;42.780;23.116;2022-10-16T08:04:14;7.95;;;4.50;;
55589;SDS011;41452;42.780;23.116;2022-10-16T08:06:39;8.18;;;4.82;;
55589;SDS011;41452;42.780;23.116;2022-10-16T08:09:05;9.20;;;4.68;;
55589;SDS011;41452;42.780;23.116;2022-10-16T08:11:32;10.23;;;4.90;;
55589;SDS011;41452;42.780;23.116;2022-10-16T08:13:58;11.00;;;5.07;;
55589;SDS011;41452;42.780;23.116;2022-10-16T08:16:23;9.05;;;4.88;;
55589;SDS011;41452;42.780;23.116;2022-10-16T08:18:49;11.07;;;5.63;;
55589;SDS011;41452;42.780;23.116;2022-10-16T08:21:17;9.57;;;5.20;;
55589;SDS011;41452;42.780;23.116;2022-10-16T08:23:44;6.75;;;4.45;;
55589;SDS011;41452;42.780;23.116;2022-10-16T08:26:10;7.50;;;4.15;;
55589;SDS011;41452;42.780;23.116;2022-10-16T08:28:36;7.18;;;4.40;;
55589;SDS011;41452;42.780;23.116;2022-10-16T08:31:05;8.93;;;4.38;;
55589;SDS011;41452;42.780;23.116;2022-10-16T08:33:31;8.10;;;5.10;;
55589;SDS011;41452;42.780;23.116;2022-10-16T08:35:56;8.15;;;4.60;;
55589;SDS011;41452;42.780;23.116;2022-10-16T08:38:22;10.98;;;5.45;;
55589;SDS011;41452;42.780;23.116;2022-10-16T08:40:47;9.07;;;4.50;;
55589;SDS011;41452;42.780;23.116;2022-10-16T08:50:56;12.73;;;4.95;;
55589;SDS011;41452;42.780;23.116;2022-10-16T08:53:24;8.98;;;3.75;;
55589;SDS011;41452;42.780;23.116;2022-10-16T08:55:55;10.85;;;4.72;;
55589;SDS011;41452;42.780;23.116;2022-10-16T08:58:21;8.55;;;3.80;;
55589;SDS011;41452;42.780;23.116;2022-10-16T09:00:55;7.70;;;3.13;;
55589;SDS011;41452;42.780;23.116;2022-10-16T09:06:04;5.70;;;3.63;;
55589;SDS011;41452;42.780;23.116;2022-10-16T09:08:45;6.70;;;3.53;;
55589;SDS011;41452;42.780;23.116;2022-10-16T09:14:18;12.32;;;3.70;;
55589;SDS011;41452;42.780;23.116;2022-10-16T09:16:54;10.25;;;4.45;;
55589;SDS011;41452;42.780;23.116;2022-10-16T09:21:56;7.88;;;3.60;;
55589;SDS011;41452;42.780;23.116;2022-10-16T09:24:25;7.00;;;3.70;;
55589;SDS011;41452;42.780;23.116;2022-10-16T09:26:51;5.97;;;3.53;;
55589;SDS011;41452;42.780;23.116;2022-10-16T09:29:17;5.50;;;3.33;;
55589;SDS011;41452;42.780;23.116;2022-10-16T09:31:48;6.57;;;3.40;;
55589;SDS011;41452;42.780;23.116;2022-10-16T09:34:21;7.57;;;3.20;;
55589;SDS011;41452;42.780;23.116;2022-10-16T09:36:55;7.82;;;3.38;;
55589;SDS011;41452;42.780;23.116;2022-10-16T09:39:22;7.35;;;4.05;;
55589;SDS011;41452;42.780;23.116;2022-10-16T09:41:47;7.90;;;4.25;;
55589;SDS011;41452;42.780;23.116;2022-10-16T09:44:18;6.05;;;4.10;;
55589;SDS011;41452;42.780;23.116;2022-10-16T09:47:00;10.27;;;3.85;;
55589;SDS011;41452;42.780;23.116;2022-10-16T09:52:22;5.15;;;3.10;;
55589;SDS011;41452;42.780;23.116;2022-10-16T09:54:55;7.38;;;2.40;;
55589;SDS011;41452;42.780;23.116;2022-10-16T09:57:26;10.10;;;3.35;;
55589;SDS011;41452;42.780;23.116;2022-10-16T09:59:53;6.68;;;2.90;;
55589;SDS011;41452;42.780;23.116;2022-10-16T10:02:36;6.57;;;2.88;;
55589;SDS011;41452;42.780;23.116;2022-10-16T10:05:04;10.50;;;2.75;;
55589;SDS011;41452;42.780;23.116;2022-10-16T10:07:42;5.00;;;2.70;;
55589;SDS011;41452;42.780;23.116;2022-10-16T10:10:44;6.50;;;2.58;;
55589;SDS011;41452;42.780;23.116;2022-10-16T10:13:16;7.70;;;2.78;;
55589;SDS011;41452;42.780;23.116;2022-10-16T10:15:44;6.05;;;2.65;;
55589;SDS011;41452;42.780;23.116;2022-10-16T10:18:19;4.53;;;2.55;;
55589;SDS011;41452;42.780;23.116;2022-10-16T10:20:57;4.82;;;2.00;;
55589;SDS011;41452;42.780;23.116;2022-10-16T10:23:24;4.85;;;2.70;;
55589;SDS011;41452;42.780;23.116;2022-10-16T10:28:40;4.07;;;2.40;;
55589;SDS011;41452;42.780;23.116;2022-10-16T10:31:11;4.18;;;2.15;;
55589;SDS011;41452;42.780;23.116;2022-10-16T10:33:59;4.22;;;2.20;;
55589;SDS011;41452;42.780;23.116;2022-10-16T10:36:40;4.22;;;2.00;;
55589;SDS011;41452;42.780;23.116;2022-10-16T10:44:21;4.25;;;2.50;;
55589;SDS011;41452;42.780;23.116;2022-10-16T10:47:06;7.75;;;2.70;;
55589;SDS011;41452;42.780;23.116;2022-10-16T10:54:54;6.53;;;2.22;;
55589;SDS011;41452;42.780;23.116;2022-10-16T11:08:43;5.32;;;2.42;;
55589;SDS011;41452;42.780;23.116;2022-10-16T11:11:17;5.18;;;2.45;;
55589;SDS011;41452;42.780;23.116;2022-10-16T11:13:57;3.90;;;2.10;;
55589;SDS011;41452;42.780;23.116;2022-10-16T11:16:28;3.78;;;2.00;;
55589;SDS011;41452;42.780;23.116;2022-10-16T11:21:25;4.30;;;1.90;;
55589;SDS011;41452;42.780;23.116;2022-10-16T11:26:35;8.27;;;2.03;;
55589;SDS011;41452;42.780;23.116;2022-10-16T11:29:04;3.78;;;2.13;;
55589;SDS011;41452;42.780;23.116;2022-10-16T11:31:39;3.83;;;1.70;;
55589;SDS011;41452;42.780;23.116;2022-10-16T11:34:25;4.15;;;1.88;;
55589;SDS011;41452;42.780;23.116;2022-10-16T11:37:02;4.38;;;2.22;;
55589;SDS011;41452;42.780;23.116;2022-10-16T11:39:34;4.13;;;1.92;;
55589;SDS011;41452;42.780;23.116;2022-10-16T11:42:21;7.57;;;2.08;;
55589;SDS011;41452;42.780;23.116;2022-10-16T11:47:33;5.05;;;2.22;;
55589;SDS011;41452;42.780;23.116;2022-10-16T11:50:01;4.53;;;1.85;;
55589;SDS011;41452;42.780;23.116;2022-10-16T11:52:42;5.95;;;1.92;;
55589;SDS011;41452;42.780;23.116;2022-10-16T11:55:17;3.88;;;2.00;;
55589;SDS011;41452;42.780;23.116;2022-10-16T11:57:57;3.72;;;1.90;;
55589;SDS011;41452;42.780;23.116;2022-10-16T12:03:40;3.85;;;2.00;;
55589;SDS011;41452;42.780;23.116;2022-10-16T12:06:12;3.40;;;2.10;;
55589;SDS011;41452;42.780;23.116;2022-10-16T12:08:48;7.30;;;2.13;;
55589;SDS011;41452;42.780;23.116;2022-10-16T12:14:03;2.90;;;1.83;;
55589;SDS011;41452;42.780;23.116;2022-10-16T12:16:53;3.80;;;1.90;;
55589;SDS011;41452;42.780;23.116;2022-10-16T12:19:28;3.08;;;1.65;;
55589;SDS011;41452;42.780;23.116;2022-10-16T12:21:58;5.45;;;1.80;;
55589;SDS011;41452;42.780;23.116;2022-10-16T12:24:43;3.25;;;1.67;;
55589;SDS011;41452;42.780;23.116;2022-10-16T12:27:24;7.10;;;1.88;;
55589;SDS011;41452;42.780;23.116;2022-10-16T12:30:01;4.13;;;1.80;;
55589;SDS011;41452;42.780;23.116;2022-10-16T12:35:03;2.80;;;1.50;;
55589;SDS011;41452;42.780;23.116;2022-10-16T12:37:32;5.13;;;1.70;;
55589;SDS011;41452;42.780;23.116;2022-10-16T12:40:10;2.92;;;1.80;;
55589;SDS011;41452;42.780;23.116;2022-10-16T12:42:56;2.88;;;1.67;;
55589;SDS011;41452;42.780;23.116;2022-10-16T12:47:52;3.65;;;1.80;;
55589;SDS011;41452;42.780;23.116;2022-10-16T12:50:27;8.00;;;1.73;;
55589;SDS011;41452;42.780;23.116;2022-10-16T12:52:57;7.50;;;2.38;;
55589;SDS011;41452;42.780;23.116;2022-10-16T12:55:23;2.70;;;1.60;;
55589;SDS011;41452;42.780;23.116;2022-10-16T13:00:24;3.55;;;1.90;;
55589;SDS011;41452;42.780;23.116;2022-10-16T13:02:57;6.40;;;1.60;;
55589;SDS011;41452;42.780;23.116;2022-10-16T13:06:04;3.20;;;1.60;;
55589;SDS011;41452;42.780;23.116;2022-10-16T13:11:08;3.70;;;1.83;;
55589;SDS011;41452;42.780;23.116;2022-10-16T13:19:33;6.57;;;1.98;;
55589;SDS011;41452;42.780;23.116;2022-10-16T13:27:29;11.80;;;2.20;;
55589;SDS011;41452;42.780;23.116;2022-10-16T13:30:13;3.72;;;1.77;;
55589;SDS011;41452;42.780;23.116;2022-10-16T13:32:55;3.40;;;1.48;;
55589;SDS011;41452;42.780;23.116;2022-10-16T13:40:48;3.30;;;1.23;;
55589;SDS011;41452;42.780;23.116;2022-10-16T13:43:16;1.90;;;0.80;;
55589;SDS011;41452;42.780;23.116;2022-10-16T13:45:52;1.92;;;1.00;;
55589;SDS011;41452;42.780;23.116;2022-10-16T13:48:18;3.03;;;1.27;;
55589;SDS011;41452;42.780;23.116;2022-10-16T13:50:43;2.90;;;1.33;;
55589;SDS011;41452;42.780;23.116;2022-10-16T13:53:13;2.38;;;1.33;;
55589;SDS011;41452;42.780;23.116;2022-10-16T13:55:39;3.78;;;1.25;;
55589;SDS011;41452;42.780;23.116;2022-10-16T13:58:06;3.22;;;1.52;;
55589;SDS011;41452;42.780;23.116;2022-10-16T14:00:42;2.63;;;1.25;;
55589;SDS011;41452;42.780;23.116;2022-10-16T14:03:26;2.53;;;1.30;;
55589;SDS011;41452;42.780;23.116;2022-10-16T14:05:54;4.47;;;1.67;;
55589;SDS011;41452;42.780;23.116;2022-10-16T14:08:22;3.40;;;1.60;;
55589;SDS011;41452;42.780;23.116;2022-10-16T14:10:50;3.78;;;1.27;;
55589;SDS011;41452;42.780;23.116;2022-10-16T14:13:19;3.28;;;1.50;;
55589;SDS011;41452;42.780;23.116;2022-10-16T14:15:51;2.78;;;1.33;;
55589;SDS011;41452;42.780;23.116;2022-10-16T14:18:21;3.67;;;1.67;;
55589;SDS011;41452;42.780;23.116;2022-10-16T14:20:49;3.20;;;1.70;;
55589;SDS011;41452;42.780;23.116;2022-10-16T14:23:20;5.70;;;1.30;;
55589;SDS011;41452;42.780;23.116;2022-10-16T14:25:53;6.35;;;1.50;;
55589;SDS011;41452;42.780;23.116;2022-10-16T14:28:19;4.10;;;1.40;;
55589;SDS011;41452;42.780;23.116;2022-10-16T14:30:57;8.23;;;1.65;;
55589;SDS011;41452;42.780;23.116;2022-10-16T14:33:31;4.20;;;1.70;;
55589;SDS011;41452;42.780;23.116;2022-10-16T14:38:26;3.28;;;1.45;;
55589;SDS011;41452;42.780;23.116;2022-10-16T14:40:52;5.00;;;2.30;;
55589;SDS011;41452;42.780;23.116;2022-10-16T14:43:22;10.63;;;2.00;;
55589;SDS011;41452;42.780;23.116;2022-10-16T14:48:19;4.35;;;1.85;;
55589;SDS011;41452;42.780;23.116;2022-10-16T14:50:45;4.57;;;1.90;;
55589;SDS011;41452;42.780;23.116;2022-10-16T14:53:11;3.65;;;1.95;;
55589;SDS011;41452;42.780;23.116;2022-10-16T14:55:37;4.72;;;2.45;;
55589;SDS011;41452;42.780;23.116;2022-10-16T14:58:03;5.13;;;2.42;;
55589;SDS011;41452;42.780;23.116;2022-10-16T15:00:29;5.82;;;2.72;;
55589;SDS011;41452;42.780;23.116;2022-10-16T15:02:54;4.15;;;2.25;;
55589;SDS011;41452;42.780;23.116;2022-10-16T15:05:21;4.60;;;2.20;;
55589;SDS011;41452;42.780;23.116;2022-10-16T15:07:48;8.25;;;2.30;;
55589;SDS011;41452;42.780;23.116;2022-10-16T15:10:14;5.47;;;2.10;;
55589;SDS011;41452;42.780;23.116;2022-10-16T15:12:44;7.50;;;2.30;;
55589;SDS011;41452;42.780;23.116;2022-10-16T15:15:32;4.53;;;2.15;;
55589;SDS011;41452;42.780;23.116;2022-10-16T15:18:03;3.50;;;1.80;;
55589;SDS011;41452;42.780;23.116;2022-10-16T15:20:36;6.20;;;2.42;;
55589;SDS011;41452;42.780;23.116;2022-10-16T15:23:04;5.18;;;2.15;;
55589;SDS011;41452;42.780;23.116;2022-10-16T15:25:37;4.07;;;2.10;;
55589;SDS011;41452;42.780;23.116;2022-10-16T15:28:07;5.82;;;2.63;;
55589;SDS011;41452;42.780;23.116;2022-10-16T15:30:33;6.93;;;2.15;;
55589;SDS011;41452;42.780;23.116;2022-10-16T15:33:00;5.55;;;2.05;;
55589;SDS011;41452;42.780;23.116;2022-10-16T15:35:26;5.20;;;2.30;;
55589;SDS011;41452;42.780;23.116;2022-10-16T15:37:52;5.38;;;2.92;;
55589;SDS011;41452;42.780;23.116;2022-10-16T15:40:18;11.35;;;3.90;;
55589;SDS011;41452;42.780;23.116;2022-10-16T15:42:44;57.50;;;13.68;;
55589;SDS011;41452;42.780;23.116;2022-10-16T15:45:10;56.50;;;12.20;;
55589;SDS011;41452;42.780;23.116;2022-10-16T15:47:36;48.15;;;9.65;;
55589;SDS011;41452;42.780;23.116;2022-10-16T15:50:02;33.70;;;8.30;;
55589;SDS011;41452;42.780;23.116;2022-10-16T15:52:28;17.48;;;4.78;;
55589;SDS011;41452;42.780;23.116;2022-10-16T15:54:56;20.77;;;5.05;;
55589;SDS011;41452;42.780;23.116;2022-10-16T15:57:22;13.88;;;3.13;;
55589;SDS011;41452;42.780;23.116;2022-10-16T15:59:48;8.65;;;3.70;;
55589;SDS011;41452;42.780;23.116;2022-10-16T16:02:14;5.57;;;2.53;;
55589;SDS011;41452;42.780;23.116;2022-10-16T16:04:39;6.78;;;2.80;;
55589;SDS011;41452;42.780;23.116;2022-10-16T16:07:04;4.10;;;2.28;;
55589;SDS011;41452;42.780;23.116;2022-10-16T16:09:32;6.72;;;2.65;;
55589;SDS011;41452;42.780;23.116;2022-10-16T16:11:58;8.13;;;2.70;;
55589;SDS011;41452;42.780;23.116;2022-10-16T16:14:27;4.32;;;2.42;;
55589;SDS011;41452;42.780;23.116;2022-10-16T16:16:53;5.13;;;2.95;;
55589;SDS011;41452;42.780;23.116;2022-10-16T16:19:20;5.20;;;2.58;;
55589;SDS011;41452;42.780;23.116;2022-10-16T16:21:48;8.45;;;3.15;;
55589;SDS011;41452;42.780;23.116;2022-10-16T16:24:14;5.97;;;2.95;;
55589;SDS011;41452;42.780;23.116;2022-10-16T16:26:40;10.02;;;4.00;;
55589;SDS011;41452;42.780;23.116;2022-10-16T16:29:11;9.82;;;3.72;;
55589;SDS011;41452;42.780;23.116;2022-10-16T16:31:38;7.30;;;3.15;;